Time;durP1;ratioP1;P1;durP2;ratioP2;P2;SDS_P1;SDS_P2;PMS_P1;PMS_P2;Temp;Humidity;BMP_temperature;BMP_pressure;BME280_temperature;BME280_humidity;BME280_pressure;Samples;Min_cycle;Max_cycle;Signal;HPM_P1;HPM_P2
2021/10/06 00:01:16;;;;;;;3.72;1.48;;;;;;;13.07;100.00;99999.25;6442143;23;20054;-81
2021/10/06 00:03:47;;;;;;;3.28;1.25;;;;;;;13.08;100.00;99995.69;6402538;23;20008;-81
2021/10/06 00:06:17;;;;;;;2.75;1.00;;;;;;;12.99;100.00;99998.81;6442058;23;20352;-81
2021/10/06 00:08:47;;;;;;;3.90;1.10;;;;;;;12.89;100.00;99992.38;6404341;23;20040;-81
2021/10/06 00:11:18;;;;;;;2.97;1.00;;;;;;;12.93;100.00;100004.41;6440993;23;20082;-80
2021/10/06 00:13:49;;;;;;;4.80;1.17;;;;;;;12.93;100.00;99994.75;6442394;23;20087;-81
2021/10/06 00:16:20;;;;;;;4.18;1.05;;;;;;;12.98;100.00;100010.25;6398969;23;20025;-81
2021/10/06 00:18:51;;;;;;;1.88;0.93;;;;;;;13.03;100.00;100018.72;6441383;23;20083;-80
2021/10/06 00:21:21;;;;;;;4.43;1.20;;;;;;;12.87;100.00;100025.69;6441000;23;20001;-80
2021/10/06 00:23:52;;;;;;;4.53;1.13;;;;;;;12.88;100.00;100022.97;6403873;23;20012;-80
2021/10/06 00:26:22;;;;;;;3.40;1.23;;;;;;;12.87;100.00;100023.06;6438626;23;20004;-80
2021/10/06 00:28:52;;;;;;;4.43;1.45;;;;;;;12.82;100.00;100024.25;6428124;23;20001;-80
2021/10/06 00:31:23;;;;;;;9.27;1.60;;;;;;;12.87;100.00;100023.06;6403447;23;20005;-80
2021/10/06 00:33:53;;;;;;;3.35;1.25;;;;;;;12.79;100.00;100027.88;6403027;23;20015;-81
2021/10/06 00:36:24;;;;;;;3.70;1.20;;;;;;;12.82;100.00;100037.34;6447931;23;20004;-80
2021/10/06 00:38:54;;;;;;;4.00;1.30;;;;;;;12.73;100.00;100033.44;6436202;23;20004;-80
2021/10/06 00:41:24;;;;;;;4.72;1.48;;;;;;;12.71;100.00;100040.53;6412050;23;20000;-80
2021/10/06 00:43:55;;;;;;;3.63;1.20;;;;;;;12.63;100.00;100042.72;6410686;23;20001;-80
2021/10/06 00:46:27;;;;;;;2.92;1.08;;;;;;;12.59;100.00;100043.81;6410792;23;20024;-80
2021/10/06 00:48:57;;;;;;;4.15;1.10;;;;;;;12.58;100.00;100049.09;6447481;23;20055;-80
2021/10/06 00:51:27;;;;;;;4.20;1.15;;;;;;;12.59;100.00;100051.66;6410674;23;20032;-80
2021/10/06 00:54:00;;;;;;;3.78;1.20;;;;;;;12.58;100.00;100044.72;6411210;23;20007;-80
2021/10/06 00:56:31;;;;;;;4.57;1.10;;;;;;;12.58;100.00;100059.59;6412461;23;19997;-80
2021/10/06 00:59:01;;;;;;;3.13;0.68;;;;;;;12.52;100.00;100060.78;6411231;23;20024;-80
2021/10/06 01:01:32;;;;;;;1.52;0.70;;;;;;;12.47;100.00;100062.78;6411937;23;20051;-80
2021/10/06 01:04:03;;;;;;;2.80;0.70;;;;;;;12.38;100.00;100062.41;6448006;23;20055;-80
2021/10/06 01:06:34;;;;;;;1.92;0.80;;;;;;;12.30;100.00;100077.69;6412364;23;20008;-80
2021/10/06 01:09:04;;;;;;;1.63;0.63;;;;;;;12.22;100.00;100072.81;6411964;23;20464;-79
2021/10/06 01:11:34;;;;;;;2.13;0.70;;;;;;;12.19;100.00;100085.22;6411274;23;20007;-80
2021/10/06 01:14:05;;;;;;;3.67;0.90;;;;;;;12.14;100.00;100084.59;6411278;23;20024;-80
2021/10/06 01:16:35;;;;;;;2.42;0.55;;;;;;;12.08;100.00;100085.75;6449455;23;20451;-80
2021/10/06 01:19:22;;;;;;;1.48;0.55;;;;;;;12.03;100.00;100089.50;6412174;23;20008;-80
2021/10/06 01:21:54;;;;;;;2.60;0.77;;;;;;;11.96;100.00;100090.75;6447887;23;20023;-80
2021/10/06 01:24:26;;;;;;;2.70;0.63;;;;;;;11.96;100.00;100090.75;6448588;23;19993;-80
2021/10/06 01:26:57;;;;;;;6.50;1.10;;;;;;;11.93;100.00;100090.91;6448633;23;20007;-80
2021/10/06 01:29:28;;;;;;;3.28;0.90;;;;;;;11.78;100.00;100097.72;6448098;23;20000;-79
2021/10/06 01:31:59;;;;;;;2.42;0.60;;;;;;;11.67;100.00;100105.25;6412117;23;20005;-80
2021/10/06 01:34:29;;;;;;;2.67;0.70;;;;;;;11.60;100.00;100101.19;6448732;23;19992;-79
2021/10/06 01:37:00;;;;;;;2.22;0.80;;;;;;;11.69;100.00;100103.41;6448411;23;20051;-79
2021/10/06 01:39:30;;;;;;;1.40;0.60;;;;;;;11.56;100.00;100117.13;6448750;23;20568;-80
2021/10/06 01:42:01;;;;;;;1.70;0.60;;;;;;;11.50;100.00;100113.00;6437327;23;20000;-79
2021/10/06 01:44:32;;;;;;;3.30;0.60;;;;;;;11.46;100.00;100111.44;6448535;23;20023;-79
2021/10/06 01:47:02;;;;;;;3.58;0.80;;;;;;;11.43;100.00;100121.22;6410803;23;20008;-80
2021/10/06 01:49:32;;;;;;;3.38;0.88;;;;;;;11.41;100.00;100116.03;6447657;23;20016;-80
2021/10/06 01:52:03;;;;;;;0.95;0.50;;;;;;;11.42;100.00;100120.34;6410324;23;20192;-79
2021/10/06 01:54:33;;;;;;;4.65;0.50;;;;;;;11.38;100.00;100123.16;6410280;23;19996;-80
2021/10/06 01:57:03;;;;;;;4.32;0.50;;;;;;;11.28;100.00;100121.91;6446905;23;20490;-80
2021/10/06 01:59:34;;;;;;;3.03;0.57;;;;;;;11.26;100.00;100124.59;6409593;23;20009;-80
2021/10/06 02:02:05;;;;;;;1.00;0.50;;;;;;;11.20;100.00;100124.88;6410828;23;20001;-80
2021/10/06 02:04:35;;;;;;;1.52;0.55;;;;;;;11.20;100.00;100117.03;6445721;23;19997;-80
2021/10/06 02:07:05;;;;;;;2.50;0.50;;;;;;;11.13;100.00;100128.66;6446842;23;20079;-79
2021/10/06 02:09:36;;;;;;;0.98;0.50;;;;;;;11.10;100.00;100136.66;6447967;23;20004;-80
2021/10/06 02:12:07;;;;;;;2.38;0.50;;;;;;;11.03;100.00;100135.25;6446266;23;20055;-80
2021/10/06 02:14:37;;;;;;;2.30;0.70;;;;;;;10.98;100.00;100130.25;6447929;23;20055;-80
2021/10/06 02:17:07;;;;;;;2.13;0.47;;;;;;;11.07;100.00;100138.56;6409644;23;20000;-80
2021/10/06 02:19:38;;;;;;;1.45;0.65;;;;;;;11.05;100.00;100130.78;6409869;23;20322;-80
2021/10/06 02:22:08;;;;;;;1.58;0.43;;;;;;;11.06;100.00;100134.22;6408886;23;20005;-80
2021/10/06 02:24:38;;;;;;;2.33;0.60;;;;;;;11.07;100.00;100128.94;6409007;23;20617;-80
2021/10/06 02:27:09;;;;;;;2.45;0.77;;;;;;;10.99;100.00;100130.22;6446213;23;20008;-80
2021/10/06 02:29:39;;;;;;;1.20;0.60;;;;;;;11.02;100.00;100136.16;6409237;23;20015;-80
2021/10/06 02:32:09;;;;;;;2.13;0.80;;;;;;;10.93;100.00;100134.84;6409629;23;20028;-80
2021/10/06 02:34:40;;;;;;;0.68;0.40;;;;;;;10.89;100.00;100141.13;6410022;23;20004;-80
2021/10/06 02:37:10;;;;;;;2.70;0.45;;;;;;;10.85;100.00;100140.41;6409634;23;20015;-80
2021/10/06 02:39:40;;;;;;;3.88;0.50;;;;;;;10.73;100.00;100148.81;6408338;23;20078;-80
2021/10/06 02:42:11;;;;;;;2.35;0.60;;;;;;;10.66;100.00;100146.53;6410660;23;20005;-80
2021/10/06 02:44:41;;;;;;;2.35;0.80;;;;;;;10.63;100.00;100151.84;6410379;23;20015;-80
2021/10/06 02:47:12;;;;;;;2.75;0.70;;;;;;;10.69;100.00;100155.06;6410486;23;20004;-80
2021/10/06 02:49:42;;;;;;;3.33;0.80;;;;;;;10.65;100.00;100152.66;6409827;23;19996;-80
2021/10/06 02:52:13;;;;;;;1.55;0.57;;;;;;;10.74;100.00;100152.25;6445233;23;19996;-80
2021/10/06 02:54:43;;;;;;;1.50;0.80;;;;;;;10.79;100.00;100160.72;6409022;23;20003;-80
2021/10/06 02:57:13;;;;;;;1.33;0.50;;;;;;;10.84;100.00;100161.41;6409219;23;20004;-80
2021/10/06 02:59:44;;;;;;;1.52;0.52;;;;;;;10.89;100.00;100160.28;6409061;23;20572;-80
2021/10/06 03:02:14;;;;;;;2.75;0.80;;;;;;;10.91;100.00;100163.69;6411057;23;20004;-80
2021/10/06 03:04:44;;;;;;;1.23;0.65;;;;;;;10.97;100.00;100167.78;6411005;23;20031;-81
2021/10/06 03:07:14;;;;;;;4.65;0.68;;;;;;;11.07;100.00;100165.56;6447516;23;20011;-80
2021/10/06 03:09:45;;;;;;;2.13;0.70;;;;;;;11.08;100.00;100169.88;6446002;23;20005;-80
2021/10/06 03:12:15;;;;;;;1.58;0.50;;;;;;;11.16;100.00;100174.75;6409716;23;20036;-80
2021/10/06 03:14:45;;;;;;;3.05;0.60;;;;;;;11.20;100.00;100182.41;6414072;23;20030;-80
2021/10/06 03:17:16;;;;;;;2.20;0.60;;;;;;;11.29;100.00;100187.22;6449195;23;20001;-80
2021/10/06 03:19:46;;;;;;;3.55;0.80;;;;;;;11.29;100.00;100199.47;6411925;23;20000;-80
2021/10/06 03:22:16;;;;;;;2.65;0.75;;;;;;;11.34;100.00;100206.19;6412243;23;20008;-80
2021/10/06 03:24:47;;;;;;;2.50;0.55;;;;;;;11.38;100.00;100196.44;6449995;23;20011;-81
2021/10/06 03:27:17;;;;;;;1.88;0.50;;;;;;;11.35;100.00;100197.44;6414478;23;20000;-81
2021/10/06 03:29:48;;;;;;;3.35;0.60;;;;;;;11.42;100.00;100198.84;6411408;23;20027;-80
2021/10/06 03:32:18;;;;;;;4.68;0.80;;;;;;;11.46;100.00;100199.56;6406643;23;20004;-80
2021/10/06 03:34:48;;;;;;;1.48;0.73;;;;;;;11.59;100.00;100208.59;6444176;23;20005;-80
2021/10/06 03:37:19;;;;;;;2.17;0.55;;;;;;;11.66;100.00;100210.00;6445112;23;20009;-80
2021/10/06 03:39:49;;;;;;;2.00;0.60;;;;;;;11.59;100.00;100214.66;6406591;23;20027;-80
2021/10/06 03:42:19;;;;;;;0.70;0.43;;;;;;;11.62;100.00;100211.91;6407454;23;19997;-81
2021/10/06 03:44:50;;;;;;;1.63;0.50;;;;;;;11.59;100.00;100216.44;6406443;23;20438;-80
2021/10/06 03:47:20;;;;;;;2.30;0.60;;;;;;;11.64;100.00;100215.28;6407500;23;20000;-79
2021/10/06 03:49:50;;;;;;;2.67;0.60;;;;;;;11.65;100.00;100224.00;6407731;23;20008;-80
2021/10/06 03:52:20;;;;;;;3.78;0.60;;;;;;;11.50;100.00;100215.06;6431942;23;20010;-79
2021/10/06 03:54:51;;;;;;;2.58;0.73;;;;;;;11.56;100.00;100220.03;6444169;23;20031;-80
2021/10/06 03:57:21;;;;;;;1.92;0.57;;;;;;;11.63;100.00;100228.47;6409076;23;20092;-80
2021/10/06 03:59:51;;;;;;;1.30;0.43;;;;;;;11.71;100.00;100226.34;6432429;23;20004;-79
2021/10/06 04:02:22;;;;;;;2.97;0.65;;;;;;;11.54;100.00;100237.56;6441048;23;20078;-79
2021/10/06 04:04:52;;;;;;;1.50;0.70;;;;;;;11.57;100.00;100242.69;6438974;23;20024;-79
2021/10/06 04:07:23;;;;;;;2.63;0.70;;;;;;;11.63;100.00;100238.94;6403883;23;20005;-80
2021/10/06 04:09:53;;;;;;;1.80;0.63;;;;;;;11.51;100.00;100247.31;6430511;23;20004;-79
2021/10/06 04:12:23;;;;;;;1.85;0.60;;;;;;;11.50;100.00;100254.31;6404564;23;19996;-79
2021/10/06 04:14:54;;;;;;;1.08;0.47;;;;;;;11.39;100.00;100258.31;6441373;23;20003;-80
2021/10/06 04:17:24;;;;;;;2.20;0.65;;;;;;;11.36;100.00;100250.59;6440922;23;20001;-79
2021/10/06 04:19:54;;;;;;;1.33;0.60;;;;;;;11.32;100.00;100260.38;6404010;23;20004;-78
2021/10/06 04:22:25;;;;;;;2.00;0.68;;;;;;;11.27;100.00;100262.31;6404395;23;20005;-79
2021/10/06 04:24:55;;;;;;;0.43;0.40;;;;;;;11.22;100.00;100266.91;6404008;23;19996;-79
2021/10/06 04:27:25;;;;;;;0.88;0.40;;;;;;;11.21;100.00;100257.34;6441857;23;20008;-78
2021/10/06 04:29:56;;;;;;;4.18;0.80;;;;;;;11.28;100.00;100268.41;6404100;23;20000;-79
2021/10/06 04:32:26;;;;;;;1.23;0.60;;;;;;;11.28;100.00;100266.63;6442386;23;20024;-79
2021/10/06 04:34:56;;;;;;;2.55;0.52;;;;;;;11.39;100.00;100266.16;6439999;23;20024;-79
2021/10/06 04:37:27;;;;;;;0.90;0.60;;;;;;;11.43;100.00;100265.97;6404182;23;20005;-79
2021/10/06 04:39:57;;;;;;;2.05;0.60;;;;;;;11.48;100.00;100269.22;6402612;23;20032;-79
2021/10/06 04:42:27;;;;;;;2.75;0.70;;;;;;;11.45;100.00;100269.34;6403042;23;20054;-79
2021/10/06 04:44:58;;;;;;;2.22;0.60;;;;;;;11.44;100.00;100279.91;6439964;23;20071;-79
2021/10/06 04:47:28;;;;;;;1.75;0.43;;;;;;;11.36;100.00;100269.78;6439554;23;20012;-79
2021/10/06 04:49:58;;;;;;;1.73;0.60;;;;;;;11.34;100.00;100274.22;6402557;23;20032;-78
2021/10/06 04:52:29;;;;;;;1.88;0.50;;;;;;;11.33;100.00;100283.00;6427523;23;20419;-78
2021/10/06 04:54:59;;;;;;;0.70;0.40;;;;;;;11.32;100.00;100280.44;6439288;23;20361;-78
2021/10/06 04:57:30;;;;;;;1.40;0.60;;;;;;;11.31;100.00;100284.78;6402303;23;20005;-79
2021/10/06 05:00:00;;;;;;;2.78;0.70;;;;;;;11.43;100.00;100289.50;6439013;23;20028;-79
2021/10/06 05:02:30;;;;;;;3.13;0.65;;;;;;;11.34;100.00;100278.59;6401494;23;20020;-79
2021/10/06 05:05:01;;;;;;;2.15;0.60;;;;;;;11.41;100.00;100286.09;6439047;23;20096;-79
2021/10/06 05:07:31;;;;;;;3.88;0.63;;;;;;;11.46;100.00;100291.97;6438709;23;20007;-79
2021/10/06 05:10:02;;;;;;;2.35;0.60;;;;;;;11.48;100.00;100303.22;6438839;23;20000;-79
2021/10/06 05:12:32;;;;;;;1.92;0.70;;;;;;;11.43;100.00;100305.22;6402155;23;20007;-78
2021/10/06 05:15:03;;;;;;;2.63;0.60;;;;;;;11.40;100.00;100297.50;6438728;23;20340;-79
2021/10/06 05:17:33;;;;;;;1.77;0.70;;;;;;;11.41;100.00;100308.81;6401430;23;19997;-79
2021/10/06 05:20:04;;;;;;;2.80;0.60;;;;;;;11.46;100.00;100299.00;6401335;23;20260;-79
2021/10/06 05:22:35;;;;;;;2.15;0.70;;;;;;;11.41;100.00;100309.66;6401107;23;20009;-79
2021/10/06 05:25:06;;;;;;;1.08;0.50;;;;;;;11.48;100.00;100303.22;6400601;23;20083;-79
2021/10/06 05:27:36;;;;;;;3.33;0.57;;;;;;;11.39;100.00;100297.53;6401421;23;20096;-79
2021/10/06 05:30:08;;;;;;;1.45;0.52;;;;;;;11.40;100.00;100294.00;6400720;23;20385;-79
2021/10/06 05:32:40;;;;;;;2.53;0.70;;;;;;;11.43;100.00;100309.59;6402825;23;20039;-80
2021/10/06 05:35:10;;;;;;;1.58;0.60;;;;;;;11.31;100.00;100310.97;6440749;23;19997;-79
2021/10/06 05:37:41;;;;;;;2.25;0.80;;;;;;;11.30;100.00;100311.88;6439116;23;19996;-79
2021/10/06 05:40:12;;;;;;;1.83;0.63;;;;;;;11.31;100.00;100316.19;6438301;23;20004;-79
2021/10/06 05:42:42;;;;;;;3.28;0.85;;;;;;;11.19;100.00;100324.56;6401413;23;20007;-79
2021/10/06 05:45:13;;;;;;;2.30;0.75;;;;;;;11.28;100.00;100334.63;6400288;23;20169;-79
2021/10/06 05:47:43;;;;;;;4.10;0.70;;;;;;;11.24;100.00;100329.63;6401917;23;20004;-79
2021/10/06 05:50:14;;;;;;;1.95;0.75;;;;;;;11.34;100.00;100336.16;6439104;23;20000;-79
2021/10/06 05:52:44;;;;;;;2.83;1.05;;;;;;;11.34;100.00;100334.41;6438431;23;20076;-79
2021/10/06 05:55:14;;;;;;;1.67;0.63;;;;;;;11.33;100.00;100343.16;6438510;23;19996;-79
2021/10/06 05:57:45;;;;;;;3.22;0.65;;;;;;;11.40;100.00;100346.34;6437054;23;20008;-79
2021/10/06 06:00:15;;;;;;;2.92;0.60;;;;;;;11.46;100.00;100352.16;6437797;23;19997;-79
2021/10/06 06:02:46;;;;;;;4.00;0.90;;;;;;;11.48;100.00;100357.34;6402670;23;19996;-79
2021/10/06 06:05:19;;;;;;;1.10;0.40;;;;;;;11.48;100.00;100359.97;6400327;23;20001;-79
2021/10/06 06:07:49;;;;;;;3.60;0.60;;;;;;;11.43;100.00;100368.00;6438981;23;20015;-80
2021/10/06 06:10:19;;;;;;;2.22;0.60;;;;;;;11.49;100.00;100370.38;6439952;23;20000;-81
2021/10/06 06:12:50;;;;;;;2.17;0.70;;;;;;;11.43;100.00;100373.25;6403409;23;20005;-80
2021/10/06 06:15:22;;;;;;;3.33;0.70;;;;;;;11.36;100.00;100376.19;6403895;23;20043;-80
2021/10/06 06:17:52;;;;;;;2.58;0.70;;;;;;;11.37;100.00;100375.25;6440074;23;20011;-80
2021/10/06 06:20:26;;;;;;;1.52;0.68;;;;;;;11.37;100.00;100383.97;6404355;23;20348;-80
2021/10/06 06:22:57;;;;;;;0.55;0.43;;;;;;;11.33;100.00;100379.78;6440763;23;19996;-79
2021/10/06 06:25:27;;;;;;;3.45;0.70;;;;;;;11.29;100.00;100380.81;6402745;23;20294;-80
2021/10/06 06:27:59;;;;;;;1.33;0.60;;;;;;;11.28;100.00;100394.81;6403530;23;20008;-80
2021/10/06 06:30:30;;;;;;;2.03;0.60;;;;;;;11.29;100.00;100396.50;6403350;23;20333;-80
2021/10/06 06:33:01;;;;;;;1.92;0.65;;;;;;;11.33;100.00;100397.25;6402927;23;20000;-80
2021/10/06 06:35:32;;;;;;;0.70;0.50;;;;;;;11.40;100.00;100393.44;6386419;23;20017;-77
2021/10/06 06:38:02;;;;;;;0.93;0.68;;;;;;;11.55;100.00;100393.66;6371525;23;20009;-77
2021/10/06 06:40:32;;;;;;;2.00;0.60;;;;;;;11.68;100.00;100405.34;6371402;23;20005;-77
2021/10/06 06:43:03;;;;;;;2.00;0.73;;;;;;;11.66;100.00;100401.97;6370644;23;20056;-77
2021/10/06 06:45:33;;;;;;;1.40;0.60;;;;;;;11.71;100.00;100410.47;6359128;23;20002;-77
2021/10/06 06:48:05;;;;;;;3.53;0.57;;;;;;;11.80;100.00;100411.81;6370764;23;20006;-77
2021/10/06 06:50:35;;;;;;;1.35;0.68;;;;;;;11.79;100.00;100407.50;6370070;23;20001;-77
2021/10/06 06:53:06;;;;;;;2.88;0.68;;;;;;;12.01;100.00;100419.63;6370777;23;20009;-77
2021/10/06 06:55:36;;;;;;;1.30;0.57;;;;;;;12.06;100.00;100420.25;6369940;23;20017;-77
2021/10/06 06:58:06;;;;;;;2.30;0.60;;;;;;;12.05;100.00;100425.53;6370426;23;20319;-77
2021/10/06 07:00:36;;;;;;;2.60;0.60;;;;;;;12.02;100.00;100429.16;6369894;23;20141;-77
2021/10/06 07:03:07;;;;;;;2.30;0.63;;;;;;;12.00;100.00;100428.38;6371169;23;20236;-77
2021/10/06 07:05:37;;;;;;;1.80;0.63;;;;;;;12.00;100.00;100428.38;6371204;23;20065;-77
2021/10/06 07:08:08;;;;;;;2.75;0.50;;;;;;;12.26;100.00;100433.31;6370958;23;20121;-77
2021/10/06 07:10:39;;;;;;;1.75;0.70;;;;;;;12.30;100.00;100429.63;6370986;23;20007;-77
2021/10/06 07:13:09;;;;;;;1.88;0.68;;;;;;;12.35;100.00;100434.69;6370956;23;20448;-77
2021/10/06 07:15:39;;;;;;;1.40;0.52;;;;;;;12.40;100.00;100437.94;6371157;23;20476;-77
2021/10/06 07:18:10;;;;;;;2.42;0.57;;;;;;;12.46;100.00;100438.50;6371350;23;20033;-78
2021/10/06 07:20:40;;;;;;;4.15;1.08;;;;;;;12.58;100.00;100443.19;6358755;23;20449;-77
2021/10/06 07:37:30;;;;;;;2.35;0.60;;;;;;;21.02;71.33;100436.53;5288655;27;20411;-77
2021/10/06 07:40:00;;;;;;;0.93;0.40;;;;;;;22.37;66.34;100436.56;5276924;28;20534;-77
2021/10/06 07:42:30;;;;;;;1.80;0.40;;;;;;;21.36;69.10;100452.28;5282560;28;20031;-77
2021/10/06 07:45:01;;;;;;;1.23;0.40;;;;;;;21.14;67.93;100449.69;5272612;28;20290;-77
2021/10/06 07:47:31;;;;;;;1.45;0.50;;;;;;;20.76;69.88;100451.03;5290329;22;20016;-77
2021/10/06 07:50:02;;;;;;;1.98;0.40;;;;;;;21.49;66.30;100462.78;5273006;28;20035;-77
2021/10/06 07:52:32;;;;;;;2.80;0.40;;;;;;;21.40;66.83;100463.53;5270513;28;20073;-77
2021/10/06 07:55:05;;;;;;;1.20;0.43;;;;;;;22.96;63.80;100457.06;5267747;28;20472;-77
2021/10/06 07:57:35;;;;;;;1.80;0.52;;;;;;;22.29;62.99;100464.84;5271453;28;20085;-77
2021/10/06 08:00:08;;;;;;;1.98;0.60;;;;;;;21.22;66.67;100473.84;5292229;28;20543;-77
2021/10/06 08:02:38;;;;;;;1.58;0.43;;;;;;;20.62;69.58;100485.81;5288916;28;20088;-77
2021/10/06 08:05:08;;;;;;;2.00;0.60;;;;;;;20.32;71.78;100488.16;5291784;28;20023;-77
2021/10/06 08:07:39;;;;;;;1.15;0.43;;;;;;;20.02;68.73;100493.19;5288367;28;20300;-77
2021/10/06 08:10:09;;;;;;;2.25;0.50;;;;;;;19.49;71.08;100492.78;5292522;28;20069;-76
2021/10/06 08:12:40;;;;;;;2.13;0.50;;;;;;;18.98;74.07;100492.06;5288642;28;20055;-77
2021/10/06 08:15:10;;;;;;;1.27;0.52;;;;;;;17.95;78.57;100503.75;5283964;28;20255;-77
2021/10/06 08:17:40;;;;;;;2.97;0.60;;;;;;;17.35;79.93;100507.78;5292343;28;20035;-76
2021/10/06 08:20:11;;;;;;;1.35;0.65;;;;;;;16.82;83.31;100512.94;5288513;28;20520;-76
2021/10/06 08:22:41;;;;;;;3.80;0.50;;;;;;;16.72;82.95;100508.31;5292404;28;20542;-76
2021/10/06 08:25:11;;;;;;;1.50;0.40;;;;;;;16.34;83.57;100526.44;5283832;28;20016;-76
2021/10/06 08:27:42;;;;;;;1.42;0.50;;;;;;;16.04;85.48;100519.50;5287329;28;20032;-76
2021/10/06 08:30:12;;;;;;;1.50;0.40;;;;;;;16.19;86.75;100527.34;5291972;28;20108;-76
2021/10/06 08:32:42;;;;;;;1.90;0.60;;;;;;;15.67;89.65;100526.03;5288671;28;20280;-76
2021/10/06 08:35:13;;;;;;;2.30;0.43;;;;;;;15.93;88.83;100525.41;5284249;28;20019;-76
2021/10/06 08:37:43;;;;;;;1.27;0.52;;;;;;;15.51;90.59;100525.19;5279855;28;20070;-76
2021/10/06 08:40:13;;;;;;;2.17;0.55;;;;;;;15.46;93.39;100526.38;5277507;28;20028;-76
2021/10/06 08:42:44;;;;;;;3.10;0.60;;;;;;;15.21;94.17;100534.75;5273789;28;20031;-76
2021/10/06 08:45:14;;;;;;;1.13;0.50;;;;;;;15.25;90.26;100540.72;5274222;28;20260;-76
2021/10/06 08:47:45;;;;;;;1.15;0.50;;;;;;;15.54;90.76;100547.91;5277763;28;20402;-76
2021/10/06 08:50:17;;;;;;;2.28;0.57;;;;;;;15.54;88.99;100540.81;5255898;28;20031;-76
2021/10/06 08:52:49;;;;;;;1.63;0.52;;;;;;;15.20;89.88;100548.03;5276246;28;20099;-76
2021/10/06 08:55:27;;;;;;;2.47;0.60;;;;;;;15.32;90.18;100553.50;5270617;28;20686;-76
2021/10/06 08:58:04;;;;;;;0.82;0.40;;;;;;;15.46;89.78;100560.63;5272449;28;20028;-76
2021/10/06 09:00:58;;;;;;;1.38;0.68;;;;;;;15.17;90.88;100562.22;5274243;28;20028;-76
2021/10/06 09:03:31;;;;;;;3.10;0.60;;;;;;;15.47;91.00;100562.31;5272520;28;20038;-76
2021/10/06 09:06:02;;;;;;;2.15;0.50;;;;;;;15.36;88.49;100572.63;5262532;28;20475;-76
2021/10/06 09:08:36;;;;;;;2.30;0.45;;;;;;;15.55;88.07;100566.22;5265236;28;20027;-76
2021/10/06 09:11:07;;;;;;;1.98;0.52;;;;;;;15.43;88.29;100569.56;5270143;28;20166;-75
2021/10/06 09:13:40;;;;;;;1.40;0.50;;;;;;;15.22;87.65;100570.69;5269138;28;20020;-76
2021/10/06 09:16:11;;;;;;;2.22;0.40;;;;;;;15.25;90.08;100570.56;5255465;28;20055;-76
2021/10/06 09:18:41;;;;;;;3.05;0.60;;;;;;;15.30;91.31;100581.72;5259980;28;20055;-76
2021/10/06 09:21:11;;;;;;;1.30;0.60;;;;;;;15.22;90.63;100569.88;5271399;28;20027;-76
2021/10/06 09:23:42;;;;;;;3.83;0.50;;;;;;;15.52;89.62;100576.13;5269150;28;20051;-76
2021/10/06 09:26:13;;;;;;;2.28;0.60;;;;;;;15.54;89.09;100577.72;5260240;28;20294;-76
2021/10/06 09:28:47;;;;;;;1.83;0.50;;;;;;;15.89;88.03;100581.00;5268558;28;20442;-76
2021/10/06 09:31:21;;;;;;;2.63;0.93;;;;;;;16.05;88.21;100576.56;5270366;28;20062;-76
2021/10/06 09:33:52;;;;;;;1.77;0.47;;;;;;;15.90;86.42;100575.63;5271904;28;20340;-76
2021/10/06 09:36:27;;;;;;;2.20;0.55;;;;;;;15.48;86.43;100582.47;5261853;28;20027;-76
2021/10/06 09:39:04;;;;;;;1.10;0.45;;;;;;;15.40;85.30;100587.31;5273475;28;20028;-78
2021/10/06 09:41:40;;;;;;;3.58;0.52;;;;;;;15.40;83.95;100577.63;5274384;28;20088;-78
2021/10/06 09:44:20;;;;;;;2.00;0.50;;;;;;;15.69;85.92;100576.03;5268408;28;20393;-78
2021/10/06 09:46:58;;;;;;;3.58;0.70;;;;;;;15.55;86.72;100589.94;5278066;28;20092;-78
2021/10/06 09:49:38;;;;;;;2.70;0.57;;;;;;;15.62;88.47;100585.19;5277743;28;20118;-79
2021/10/06 09:52:18;;;;;;;1.70;0.50;;;;;;;15.80;87.03;100582.38;5271110;28;20023;-78
2021/10/06 09:54:53;;;;;;;1.42;0.50;;;;;;;15.53;86.94;100586.53;5265744;28;20032;-79
2021/10/06 09:57:32;;;;;;;2.33;0.50;;;;;;;15.46;85.61;100592.25;5268248;28;20123;-78
2021/10/06 10:00:05;;;;;;;3.17;0.80;;;;;;;15.38;85.42;100600.56;5271955;28;20131;-78
2021/10/06 10:02:36;;;;;;;2.03;0.73;;;;;;;15.31;87.52;100591.31;5278093;28;20023;-79
2021/10/06 10:05:07;;;;;;;2.45;0.60;;;;;;;15.28;88.52;100604.63;5269234;28;20490;-78
2021/10/06 10:07:38;;;;;;;1.10;0.50;;;;;;;15.50;88.27;100602.53;5275818;28;20085;-78
2021/10/06 10:10:11;;;;;;;2.25;0.43;;;;;;;15.54;89.69;100611.13;5274274;28;20016;-78
2021/10/06 10:12:42;;;;;;;1.10;0.57;;;;;;;15.80;86.59;100607.88;5271399;28;20070;-81
2021/10/06 10:15:14;;;;;;;2.05;0.57;;;;;;;15.73;87.60;100607.38;5276661;28;20023;-79
2021/10/06 10:17:45;;;;;;;3.70;0.93;;;;;;;15.64;88.56;100607.91;5273262;28;20195;-77
2021/10/06 10:20:16;;;;;;;2.35;0.50;;;;;;;15.91;89.69;100606.31;5275460;28;20032;-80
2021/10/06 10:22:49;;;;;;;3.03;0.52;;;;;;;15.89;86.36;100596.81;5277065;28;20435;-79
2021/10/06 10:25:26;;;;;;;1.58;0.40;;;;;;;16.17;85.13;100597.78;5268127;28;20063;-83
2021/10/06 10:28:10;;;;;;;0.55;0.30;;;;;;;16.17;86.07;100612.75;5268749;28;20491;-79
2021/10/06 10:30:53;;;;;;;1.45;0.50;;;;;;;16.78;84.19;100611.75;5250123;28;20038;-82
2021/10/06 10:33:44;;;;;;;1.90;0.57;;;;;;;16.66;80.95;100612.47;5266913;28;20032;-84
2021/10/06 10:36:34;;;;;;;1.08;0.50;;;;;;;16.64;83.78;100601.16;5257344;28;20038;-79
2021/10/06 10:39:32;;;;;;;1.73;0.60;;;;;;;17.06;84.07;100617.03;5267453;28;20032;-79
2021/10/06 10:42:02;;;;;;;1.33;0.45;;;;;;;17.18;82.42;100614.47;5269454;28;20491;-81
2021/10/06 10:44:41;;;;;;;1.70;0.45;;;;;;;17.28;82.40;100622.72;5275538;28;20023;-78
2021/10/06 10:47:11;;;;;;;2.58;0.50;;;;;;;16.83;80.24;100621.06;5266414;28;20016;-78
2021/10/06 10:49:44;;;;;;;1.15;0.40;;;;;;;16.83;81.09;100621.06;5269812;28;20038;-78
2021/10/06 10:52:15;;;;;;;2.35;0.47;;;;;;;16.50;81.24;100627.50;5270078;28;20027;-81
2021/10/06 10:54:49;;;;;;;1.15;0.40;;;;;;;16.45;81.89;100624.28;5268869;28;20032;-79
2021/10/06 10:57:25;;;;;;;1.75;0.60;;;;;;;16.48;83.79;100624.13;5269844;28;20051;-79
2021/10/06 10:59:58;;;;;;;1.15;0.35;;;;;;;16.54;80.96;100623.75;5274653;28;20059;-78
2021/10/06 11:02:33;;;;;;;1.63;0.50;;;;;;;16.40;79.12;100621.06;5273767;28;20110;-81
2021/10/06 11:05:06;;;;;;;1.70;0.43;;;;;;;16.11;79.15;100619.25;5274209;28;20111;-76
2021/10/06 11:07:50;;;;;;;1.85;0.40;;;;;;;16.28;80.13;100621.75;5275309;28;20080;-80
2021/10/06 11:10:26;;;;;;;2.33;0.60;;;;;;;16.66;79.75;100617.75;5269802;28;20036;-77
2021/10/06 11:13:05;;;;;;;0.93;0.40;;;;;;;16.42;80.55;100627.09;5271043;28;20031;-81
2021/10/06 11:15:36;;;;;;;1.67;0.40;;;;;;;16.32;81.85;100620.63;5272005;28;20043;-77
2021/10/06 11:18:16;;;;;;;1.75;0.60;;;;;;;16.31;79.89;100624.22;5274870;28;20054;-80
2021/10/06 11:20:52;;;;;;;1.33;0.50;;;;;;;16.47;81.49;100622.41;5269099;28;20027;-79
2021/10/06 11:23:32;;;;;;;1.75;0.30;;;;;;;16.15;79.01;100619.91;5270779;28;20024;-80
2021/10/06 11:26:10;;;;;;;1.23;0.43;;;;;;;15.85;77.77;100619.88;5264609;28;20024;-76
2021/10/06 11:28:49;;;;;;;2.58;0.30;;;;;;;15.76;78.07;100628.31;5253066;28;20413;-77
2021/10/06 11:31:28;;;;;;;2.80;0.60;;;;;;;15.72;79.81;100626.75;5272768;28;20031;-77
2021/10/06 11:34:00;;;;;;;1.73;0.40;;;;;;;15.68;80.28;100638.41;5273065;28;20035;-77
2021/10/06 11:36:34;;;;;;;1.95;0.60;;;;;;;15.72;80.02;100632.03;5272781;28;20515;-78
2021/10/06 11:39:09;;;;;;;4.72;0.60;;;;;;;15.80;81.08;100650.91;5275147;28;20093;-81
2021/10/06 11:41:45;;;;;;;0.70;0.40;;;;;;;16.01;79.36;100643.59;5271758;28;20033;-81
2021/10/06 11:44:26;;;;;;;2.63;0.70;;;;;;;15.93;79.37;100635.25;5264415;28;20042;-82
2021/10/06 11:47:03;;;;;;;0.55;0.30;;;;;;;16.01;78.36;100639.16;5275374;28;20081;-79
2021/10/06 11:49:37;;;;;;;2.33;0.40;;;;;;;15.89;79.42;100645.09;5271726;28;20189;-80
2021/10/06 11:52:09;;;;;;;1.55;0.47;;;;;;;16.03;79.89;100653.09;5270657;28;20390;-78
2021/10/06 11:54:40;;;;;;;0.90;0.40;;;;;;;16.22;80.26;100640.56;5270905;28;20402;-82